createdAt,value
2023-01-11T00:02:40.029Z,105231.22
2023-01-11T00:07:42.632Z,105240.69
2023-01-11T00:12:45.541Z,105231.88
2023-01-11T00:17:48.117Z,105230.22
2023-01-11T00:22:51.236Z,105227.41
2023-01-11T00:27:54.724Z,105208.38
2023-01-11T00:32:58.983Z,105207.53
2023-01-11T00:38:01.632Z,105215.19
2023-01-11T00:43:22.387Z,105217.72
2023-01-11T00:48:25.014Z,105208.97
2023-01-11T00:53:27.468Z,105218.72
2023-01-11T00:58:29.920Z,105207.22
2023-01-11T01:03:32.524Z,105218.88
2023-01-11T01:08:35.885Z,105222.41
2023-01-11T01:13:56.635Z,105219.88
2023-01-11T01:19:00.323Z,105228.97
2023-01-11T01:24:02.917Z,105228.19
2023-01-11T01:29:08.544Z,105217.47
2023-01-11T01:34:12.530Z,105223.13
2023-01-11T01:39:15.323Z,105228.97
2023-01-11T01:44:54.230Z,105226.25
2023-01-11T01:49:58.788Z,105229.66
2023-01-11T01:55:05.974Z,105232.69
2023-01-11T02:00:11.186Z,105199.66
2023-01-11T02:05:16.259Z,105225.22
2023-01-11T02:10:25.440Z,105235.25
2023-01-11T02:15:29.418Z,105235.34
2023-01-11T02:20:34.867Z,105239.03
2023-01-11T02:26:05.399Z,105243.38
2023-01-11T02:31:29.747Z,105241.19
2023-01-11T02:36:54.844Z,105253.34
2023-01-11T02:42:47.665Z,105243.00
2023-01-11T02:48:05.109Z,105232.34
2023-01-11T02:53:22.777Z,105248.81
2023-01-11T02:58:30.733Z,105251.34
2023-01-11T03:03:37.631Z,105255.81
2023-01-11T03:09:03.031Z,105263.84
2023-01-11T03:14:34.805Z,105257.91
2023-01-11T03:19:53.872Z,105263.28
2023-01-11T03:25:04.538Z,105249.38
2023-01-11T03:30:17.576Z,105253.81
2023-01-11T03:35:42.352Z,105246.59
2023-01-11T03:40:54.531Z,105230.22
2023-01-11T03:46:11.234Z,105256.06
2023-01-11T03:51:18.129Z,105243.97
2023-01-11T03:56:26.566Z,105251.00
2023-01-11T04:01:30.119Z,105249.00
2023-01-11T04:06:36.529Z,105251.44
2023-01-11T04:11:39.173Z,105244.84
2023-01-11T04:16:41.783Z,105242.00
2023-01-11T04:21:44.400Z,105228.28
2023-01-11T04:26:47.059Z,105235.13
2023-01-11T04:31:49.989Z,105236.47
2023-01-11T04:36:53.412Z,105260.88
2023-01-11T04:42:14.833Z,105251.19
2023-01-11T04:47:19.057Z,105272.00
2023-01-11T04:52:22.214Z,105262.81
2023-01-11T04:57:25.611Z,105250.38
2023-01-11T05:02:28.115Z,105259.84
2023-01-11T05:07:30.743Z,105252.13
2023-01-11T05:12:33.277Z,105251.56
2023-01-11T05:17:36.203Z,105259.34
2023-01-11T05:22:38.719Z,105254.41
2023-01-11T05:27:42.304Z,105272.19
2023-01-11T05:32:44.793Z,105266.84
2023-01-11T05:37:47.492Z,105269.59
2023-01-11T05:42:50.120Z,105267.84
2023-01-11T05:47:54.077Z,105280.84
2023-01-11T05:52:56.632Z,105282.88
2023-01-11T05:57:59.538Z,105278.69
2023-01-11T06:03:02.649Z,105274.91
2023-01-11T06:08:05.436Z,105270.53
2023-01-11T06:13:26.885Z,105273.34
2023-01-11T06:18:33.563Z,105283.47
2023-01-11T06:23:38.981Z,105261.34
2023-01-11T06:28:42.291Z,105265.34
2023-01-11T06:33:45.321Z,105289.47
2023-01-11T06:38:48.738Z,105285.47
2023-01-11T06:49:10.918Z,105288.78
2023-01-11T06:54:13.537Z,105281.91
2023-01-11T06:59:16.124Z,105285.00
2023-01-11T07:04:20.056Z,105263.16
2023-01-11T07:09:25.620Z,105289.50
2023-01-11T07:14:28.803Z,105268.72
2023-01-11T07:19:31.464Z,105275.34
2023-01-11T07:24:34.177Z,105289.16
2023-01-11T07:29:36.687Z,105278.84
2023-01-11T07:34:39.186Z,105272.28
2023-01-11T07:39:43.747Z,105262.84
2023-01-11T07:44:46.733Z,105247.22
2023-01-11T07:49:52.363Z,105240.78
2023-01-11T07:54:54.886Z,105246.38
2023-01-11T07:59:57.475Z,105219.34
2023-01-11T08:05:02.239Z,105225.38
2023-01-11T08:10:07.760Z,105226.69
2023-01-11T08:15:12.771Z,105207.28
2023-01-11T08:20:15.683Z,105201.34
2023-01-11T08:25:18.751Z,105202.25
2023-01-11T08:30:21.388Z,105201.75
2023-01-11T08:35:26.050Z,105187.66
2023-01-11T08:40:30.318Z,105183.66
2023-01-11T08:45:34.355Z,105186.78
2023-01-11T08:50:39.133Z,105188.56
2023-01-11T09:01:05.729Z,105178.28
2023-01-11T09:06:08.335Z,105164.38
2023-01-11T09:11:30.746Z,105150.00
2023-01-11T09:16:33.377Z,105159.72
2023-01-11T09:21:36.735Z,105160.38
2023-01-11T09:26:41.714Z,105148.88
2023-01-11T09:31:44.248Z,105163.00
2023-01-11T09:36:49.124Z,105152.94
2023-01-11T09:42:07.681Z,105141.63
2023-01-11T09:47:46.231Z,105131.25
2023-01-11T09:53:10.068Z,105114.66
2023-01-11T09:58:28.790Z,105114.78
2023-01-11T10:03:52.014Z,105119.09
2023-01-11T10:18:33.076Z,105087.72
2023-01-11T10:20:44.918Z,105081.53
2023-01-11T10:25:51.910Z,105086.56
2023-01-11T10:30:59.092Z,105082.38
2023-01-11T10:36:21.689Z,105062.94
2023-01-11T10:41:38.828Z,105040.94
2023-01-11T10:46:45.628Z,105055.78
2023-01-11T10:51:49.689Z,105063.63
2023-01-11T11:08:17.894Z,105028.88
2023-01-11T11:13:43.386Z,105031.09
2023-01-11T11:18:46.166Z,105039.53
2023-01-11T11:23:56.129Z,105037.91
2023-01-11T11:29:11.210Z,105030.09
2023-01-11T11:34:20.039Z,105027.25
2023-01-11T11:39:30.891Z,105015.41
2023-01-11T11:44:33.848Z,105010.06
2023-01-11T11:49:38.721Z,105026.75
2023-01-11T11:54:53.115Z,105011.88
2023-01-11T12:00:03.892Z,105012.34
2023-01-11T12:05:10.722Z,104986.84
2023-01-11T12:10:20.057Z,105007.56
2023-01-11T12:15:30.841Z,104991.88
2023-01-11T12:20:39.360Z,104986.56
2023-01-11T12:26:13.232Z,104981.28
2023-01-11T12:31:31.356Z,104980.41
2023-01-11T12:36:51.453Z,104990.22
2023-01-11T12:42:21.141Z,104988.47
2023-01-11T12:47:56.153Z,104982.31
2023-01-11T12:53:26.460Z,104978.84
2023-01-11T12:58:53.223Z,104972.34
2023-01-11T13:04:34.471Z,104984.75
2023-01-11T13:09:49.927Z,104985.84
2023-01-11T13:15:10.547Z,105003.75
2023-01-11T13:20:58.739Z,104994.81
2023-01-11T13:26:16.910Z,104991.84
2023-01-11T13:31:20.683Z,105010.28
2023-01-11T13:36:28.127Z,105017.03
2023-01-11T13:41:41.257Z,105008.94
2023-01-11T13:46:55.649Z,105006.25
2023-01-11T13:52:11.479Z,105007.69
2023-01-11T13:57:41.845Z,105011.72
2023-01-11T14:02:50.257Z,105019.16
2023-01-11T14:08:01.166Z,105012.75
2023-01-11T14:13:35.372Z,105019.34
2023-01-11T14:18:41.838Z,105014.63
2023-01-11T14:23:49.692Z,105022.88
2023-01-11T14:30:00.861Z,105020.97
2023-01-11T14:35:24.624Z,105035.72
2023-01-11T14:40:39.280Z,105034.63
2023-01-11T14:46:01.050Z,105042.97
2023-01-11T14:51:30.670Z,105051.91
2023-01-11T14:56:47.300Z,105041.28
2023-01-11T15:02:17.104Z,105047.59
2023-01-11T15:07:52.211Z,105049.41
2023-01-11T15:13:43.029Z,105047.88
2023-01-11T15:18:55.864Z,105037.44
2023-01-11T15:23:59.554Z,105048.03
2023-01-11T15:29:03.420Z,105023.44
2023-01-11T15:34:25.988Z,105044.28
2023-01-11T15:39:54.556Z,105028.56
2023-01-11T15:45:28.027Z,105039.16
2023-01-11T15:51:02.648Z,105031.03
2023-01-11T15:56:31.599Z,105032.47
2023-01-11T16:01:52.767Z,105021.16
2023-01-11T16:07:03.206Z,104999.22
2023-01-11T16:12:28.220Z,105017.41
2023-01-11T16:17:31.525Z,105012.06
2023-01-11T16:22:37.652Z,105019.63
2023-01-11T16:27:40.557Z,105021.31
2023-01-11T16:32:43.608Z,105014.56
2023-01-11T16:37:51.741Z,105030.44
2023-01-11T16:42:54.323Z,105024.53
2023-01-11T16:48:14.010Z,105011.75
2023-01-11T16:53:17.995Z,105006.06
2023-01-11T16:58:34.172Z,105004.97
2023-01-11T17:03:43.978Z,104992.59
2023-01-11T17:08:55.544Z,104979.66
2023-01-11T17:14:32.109Z,104981.50
2023-01-11T17:19:37.773Z,104973.25
2023-01-11T17:24:59.980Z,104970.97
2023-01-11T17:30:06.199Z,104970.25
2023-01-11T17:35:34.393Z,104967.75
2023-01-11T17:40:58.892Z,104956.31
2023-01-11T17:46:03.122Z,104945.13
2023-01-11T17:51:06.377Z,104939.22
2023-01-11T17:56:38.036Z,104940.13
2023-01-11T18:01:47.721Z,104936.78
2023-01-11T18:06:54.735Z,104926.31
2023-01-11T18:12:21.056Z,104922.31
2023-01-11T18:17:32.577Z,104925.22
2023-01-11T18:22:42.142Z,104910.81
2023-01-11T18:27:46.776Z,104916.13
2023-01-11T18:32:49.412Z,104916.13
2023-01-11T18:37:52.174Z,104905.41
2023-01-11T18:42:54.828Z,104902.97
2023-01-11T18:47:59.113Z,104902.66
2023-01-11T18:53:02.481Z,104892.56
2023-01-11T18:58:05.044Z,104888.41
2023-01-11T19:03:09.670Z,104883.50
2023-01-11T19:08:12.264Z,104892.91
2023-01-11T19:13:19.540Z,104874.25
2023-01-11T19:18:22.967Z,104879.38
2023-01-11T19:23:25.625Z,104883.72
2023-01-11T19:28:29.594Z,104868.34
2023-01-11T19:33:32.272Z,104861.56
2023-01-11T19:38:35.100Z,104857.19
2023-01-11T19:43:44.929Z,104853.66
2023-01-11T19:48:47.585Z,104851.34
2023-01-11T19:53:50.189Z,104850.47
2023-01-11T20:04:16.843Z,104842.44
2023-01-11T20:09:38.245Z,104852.91
2023-01-11T20:14:41.011Z,104847.75
2023-01-11T20:19:43.782Z,104837.59
2023-01-11T20:25:12.705Z,104827.25
2023-01-11T20:30:15.999Z,104832.41
2023-01-11T20:35:18.721Z,104824.69
2023-01-11T20:40:21.300Z,104819.59
2023-01-11T20:45:23.995Z,104808.66
2023-01-11T20:50:26.643Z,104810.31
2023-01-11T20:55:47.341Z,104799.97
2023-01-11T21:00:50.132Z,104797.28
2023-01-11T21:05:56.532Z,104799.03
2023-01-11T21:11:10.558Z,104789.63
2023-01-11T21:16:15.983Z,104780.09
2023-01-11T21:21:34.203Z,104771.50
2023-01-11T21:26:36.828Z,104771.38
2023-01-11T21:31:40.260Z,104769.50
2023-01-11T21:36:43.923Z,104751.50
2023-01-11T21:41:55.573Z,104756.47
2023-01-11T21:47:06.593Z,104751.28
2023-01-11T21:52:09.308Z,104745.97
2023-01-11T21:57:30.407Z,104735.63
2023-01-11T22:02:33.047Z,104718.50
2023-01-11T22:07:37.965Z,104732.84
2023-01-11T22:12:40.566Z,104725.97
2023-01-11T22:17:43.496Z,104725.19
2023-01-11T22:22:46.273Z,104726.66
2023-01-11T22:27:48.807Z,104723.06
2023-01-11T22:32:51.356Z,104691.19
2023-01-11T22:37:53.926Z,104712.91
2023-01-11T22:42:57.255Z,104703.31
2023-01-11T22:47:59.839Z,104699.16
2023-01-11T22:53:02.459Z,104691.13
2023-01-11T22:58:06.759Z,104691.94
2023-01-11T23:03:11.764Z,104702.06
2023-01-11T23:08:15.037Z,104692.88
2023-01-11T23:13:46.616Z,104680.19
2023-01-11T23:18:49.241Z,104662.72
2023-01-11T23:24:11.127Z,104691.13
2023-01-11T23:29:13.942Z,104687.78
2023-01-11T23:34:16.747Z,104682.69
2023-01-11T23:39:19.529Z,104649.00
2023-01-11T23:44:40.165Z,104674.03
2023-01-11T23:49:43.989Z,104663.13
2023-01-11T23:54:47.389Z,104661.41
2023-01-11T23:59:50.094Z,104658.78
